createdAt,value
2022-08-03T00:00:29.041Z,2.99
2022-08-03T00:05:48.367Z,3.0
2022-08-03T00:10:55.866Z,3.0
2022-08-03T00:16:03.412Z,3.0
2022-08-03T00:21:10.889Z,2.99
2022-08-03T00:26:18.460Z,3.0
2022-08-03T00:31:25.902Z,3.0
2022-08-03T00:36:32.219Z,3.0
2022-08-03T00:41:41.207Z,3.0
2022-08-03T00:46:48.321Z,3.0
2022-08-03T00:51:55.762Z,3.0
2022-08-03T00:57:02.373Z,3.0
2022-08-03T01:02:10.292Z,3.01
2022-08-03T01:07:17.363Z,3.0
2022-08-03T01:12:25.428Z,3.0
2022-08-03T01:17:32.447Z,3.0
2022-08-03T01:22:40.216Z,3.0
2022-08-03T01:27:47.984Z,3.0
2022-08-03T01:32:54.897Z,2.99
2022-08-03T01:38:02.461Z,3.0
2022-08-03T01:43:11.354Z,3.0
2022-08-03T01:48:19.659Z,2.99
2022-08-03T01:53:28.274Z,2.99
2022-08-03T01:58:35.134Z,2.99
2022-08-03T02:03:42.906Z,3.0
2022-08-03T02:08:50.135Z,3.0
2022-08-03T02:13:56.727Z,3.0
2022-08-03T02:19:04.532Z,3.0
2022-08-03T02:24:11.730Z,2.99
2022-08-03T02:29:19.595Z,2.99
2022-08-03T02:34:27.042Z,3.0
2022-08-03T02:39:34.823Z,2.99
2022-08-03T02:44:41.843Z,2.99
2022-08-03T02:49:48.356Z,3.0
2022-08-03T02:54:56.212Z,2.99
2022-08-03T03:00:04.052Z,3.0
2022-08-03T03:05:11.274Z,2.98
2022-08-03T03:10:18.403Z,2.99
2022-08-03T03:15:31.407Z,2.98
2022-08-03T03:20:38.359Z,3.0
2022-08-03T03:25:45.908Z,2.99
2022-08-03T03:30:53.713Z,2.99
2022-08-03T03:36:01.408Z,2.99
2022-08-03T03:41:08.061Z,3.01
2022-08-03T03:46:16.009Z,3.0
2022-08-03T03:51:23.941Z,3.0
2022-08-03T03:56:30.967Z,3.0
2022-08-03T04:01:38.798Z,2.99
2022-08-03T04:06:51.091Z,3.0
2022-08-03T04:11:59.193Z,2.99
2022-08-03T04:17:07.279Z,3.0
2022-08-03T04:22:15.211Z,3.0
2022-08-03T04:27:23.910Z,3.0
2022-08-03T04:32:31.925Z,3.0
2022-08-03T04:37:40.142Z,3.0
2022-08-03T04:42:47.249Z,3.01
2022-08-03T04:47:54.877Z,3.0
2022-08-03T04:53:01.646Z,3.02
2022-08-03T04:58:11.275Z,3.01
2022-08-03T05:03:18.607Z,3.01
2022-08-03T05:08:25.381Z,3.01
2022-08-03T05:13:33.013Z,3.01
2022-08-03T05:18:39.600Z,3.01
2022-08-03T05:23:46.771Z,3.02
2022-08-03T05:28:55.254Z,3.01
2022-08-03T05:35:34.279Z,3.01
2022-08-03T05:40:40.661Z,3.02
2022-08-03T05:45:49.084Z,3.01
2022-08-03T05:50:56.247Z,3.0
2022-08-03T05:56:03.459Z,3.01
2022-08-03T06:01:11.574Z,3.02
2022-08-03T06:06:19.095Z,3.01
2022-08-03T06:11:26.305Z,3.02
2022-08-03T06:16:34.139Z,3.01
2022-08-03T06:21:41.366Z,3.01
2022-08-03T06:26:49.645Z,3.02
2022-08-03T06:31:57.304Z,3.01
2022-08-03T06:37:05.336Z,3.01
2022-08-03T06:42:13.410Z,3.02
2022-08-03T06:47:21.732Z,3.01
2022-08-03T06:52:28.998Z,3.02
2022-08-03T06:57:36.791Z,3.01
2022-08-03T07:02:44.955Z,3.02
2022-08-03T07:07:52.734Z,3.02
2022-08-03T07:13:00.873Z,3.01
2022-08-03T07:18:08.853Z,3.03
2022-08-03T07:23:16.721Z,3.01
2022-08-03T07:28:25.715Z,3.02
2022-08-03T07:34:13.389Z,3.02
2022-08-03T07:39:19.915Z,3.03
2022-08-03T07:44:28.351Z,3.02
2022-08-03T07:49:35.583Z,3.02
2022-08-03T07:54:44.564Z,3.02
2022-08-03T07:59:54.253Z,3.02
2022-08-03T08:05:02.879Z,3.03
2022-08-03T08:10:11.282Z,3.01
2022-08-03T08:15:18.614Z,3.03
2022-08-03T08:20:25.873Z,3.02
2022-08-03T08:25:34.073Z,3.03
2022-08-03T08:30:41.955Z,3.03
2022-08-03T08:35:51.118Z,3.02
2022-08-03T08:40:58.438Z,3.03
2022-08-03T08:46:05.930Z,3.03
2022-08-03T08:51:13.847Z,3.02
2022-08-03T08:56:22.160Z,3.03
2022-08-03T09:01:29.837Z,3.03
2022-08-03T09:06:38.308Z,3.03
2022-08-03T09:11:45.707Z,3.03
2022-08-03T09:16:52.051Z,3.03
2022-08-03T09:21:59.447Z,3.03
2022-08-03T09:27:06.969Z,3.03
2022-08-03T09:32:23.125Z,3.02
2022-08-03T09:37:31.071Z,3.02
2022-08-03T09:42:37.731Z,3.03
2022-08-03T09:47:44.842Z,3.03
2022-08-03T09:52:56.333Z,3.02
2022-08-03T09:58:03.768Z,3.03
2022-08-03T10:03:11.609Z,3.01
2022-08-03T10:08:19.839Z,3.03
2022-08-03T10:13:27.502Z,3.03
2022-08-03T10:18:34.664Z,3.03
2022-08-03T10:23:43.051Z,3.03
2022-08-03T10:28:51.005Z,3.02
2022-08-03T10:33:58.620Z,3.04
2022-08-03T10:39:05.919Z,3.03
2022-08-03T10:44:13.018Z,3.04
2022-08-03T10:49:20.244Z,3.03
2022-08-03T10:54:28.013Z,3.03
2022-08-03T10:59:35.276Z,3.03
2022-08-03T11:04:43.609Z,3.03
2022-08-03T11:09:51.578Z,3.03
2022-08-03T11:14:58.970Z,3.04
2022-08-03T11:20:07.110Z,3.03
2022-08-03T11:25:13.820Z,3.03
2022-08-03T11:30:21.658Z,3.03
2022-08-03T11:35:28.864Z,3.03
2022-08-03T11:40:36.031Z,3.03
2022-08-03T11:45:42.612Z,3.03
2022-08-03T11:50:51.412Z,3.03
2022-08-03T11:55:59.104Z,3.04
2022-08-03T12:01:06.552Z,3.03
2022-08-03T12:06:13.923Z,3.03
2022-08-03T12:11:20.538Z,3.03
2022-08-03T12:16:27.960Z,3.04
2022-08-03T12:21:36.720Z,3.04
2022-08-03T12:27:34.674Z,3.04
2022-08-03T12:32:41.206Z,3.04
2022-08-03T12:37:49.656Z,3.04
2022-08-03T12:42:56.858Z,3.03
2022-08-03T12:48:05.046Z,3.04
2022-08-03T12:53:12.540Z,3.04
2022-08-03T12:58:21.058Z,3.04
2022-08-03T13:03:29.698Z,3.03
2022-08-03T13:08:38.165Z,3.03
2022-08-03T13:13:45.816Z,3.04
2022-08-03T13:18:54.499Z,3.03
2022-08-03T13:24:02.376Z,3.04
2022-08-03T13:29:08.692Z,3.03
2022-08-03T13:34:15.888Z,3.03
2022-08-03T13:39:24.334Z,3.04
2022-08-03T13:44:31.941Z,3.04
2022-08-03T13:49:39.447Z,3.03
2022-08-03T13:54:46.559Z,3.04
2022-08-03T13:59:53.852Z,3.04
2022-08-03T14:05:02.082Z,3.03
2022-08-03T14:10:10.344Z,3.03
2022-08-03T14:15:18.307Z,3.03
2022-08-03T14:20:26.985Z,3.03
2022-08-03T14:25:34.694Z,3.04
2022-08-03T14:30:41.498Z,3.04
2022-08-03T14:35:48.967Z,3.02
2022-08-03T14:40:56.965Z,3.04
2022-08-03T14:46:04.883Z,3.04
2022-08-03T14:51:13.090Z,3.04
2022-08-03T14:56:21.214Z,3.04
2022-08-03T15:01:44.422Z,3.03
2022-08-03T15:06:52.363Z,3.04
2022-08-03T15:12:00.206Z,3.03
2022-08-03T15:17:14.705Z,3.03
2022-08-03T15:22:23.447Z,3.03
2022-08-03T15:27:30.782Z,3.04
2022-08-03T15:32:37.415Z,3.04
2022-08-03T15:38:01.141Z,3.04
2022-08-03T15:43:08.845Z,3.04
2022-08-03T15:48:16.887Z,3.04
2022-08-03T15:53:24.380Z,3.04
2022-08-03T15:58:30.654Z,3.04
2022-08-03T16:03:38.007Z,3.04
2022-08-03T16:08:45.060Z,3.05
2022-08-03T16:13:53.213Z,3.03
2022-08-03T16:19:00.088Z,3.03
2022-08-03T16:24:08.177Z,3.03
2022-08-03T16:29:16.245Z,3.03
2022-08-03T16:34:22.933Z,3.03
2022-08-03T16:39:31.172Z,3.03
2022-08-03T16:44:39.855Z,3.03
2022-08-03T16:49:47.470Z,3.03
2022-08-03T16:54:53.662Z,3.03
2022-08-03T17:00:00.215Z,3.03
2022-08-03T17:05:07.413Z,3.03
2022-08-03T17:10:14.872Z,3.03
2022-08-03T17:15:23.435Z,3.02
2022-08-03T17:20:30.962Z,3.03
2022-08-03T17:25:37.492Z,3.04
2022-08-03T17:30:45.965Z,3.03
2022-08-03T17:35:53.822Z,3.03
2022-08-03T17:41:01.719Z,3.03
2022-08-03T17:46:09.089Z,3.03
2022-08-03T17:51:16.795Z,3.03
2022-08-03T17:56:23.896Z,3.03
2022-08-03T18:01:31.876Z,3.02
2022-08-03T18:06:39.446Z,3.03
2022-08-03T18:11:46.857Z,3.03
2022-08-03T18:16:54.220Z,3.03
2022-08-03T18:22:01.477Z,3.03
2022-08-03T18:27:10.043Z,3.03
2022-08-03T18:32:17.488Z,3.03
2022-08-03T18:37:24.124Z,3.04
2022-08-03T18:42:31.691Z,3.02
2022-08-03T18:47:37.826Z,3.02
2022-08-03T18:52:46.002Z,3.03
2022-08-03T18:57:53.536Z,3.03
2022-08-03T19:03:01.275Z,3.03
2022-08-03T19:08:07.933Z,3.02
2022-08-03T19:13:15.121Z,3.03
2022-08-03T19:18:22.996Z,3.02
2022-08-03T19:23:29.989Z,3.02
2022-08-03T19:28:37.688Z,3.02
2022-08-03T19:33:45.181Z,3.02
2022-08-03T19:38:52.320Z,3.02
2022-08-03T19:43:59.545Z,3.02
2022-08-03T19:49:06.778Z,3.02
2022-08-03T19:54:14.266Z,3.01
2022-08-03T19:59:22.969Z,3.02
2022-08-03T20:04:30.163Z,3.01
2022-08-03T20:09:37.510Z,3.02
2022-08-03T20:14:46.745Z,3.02
2022-08-03T20:19:54.979Z,3.02
2022-08-03T20:25:03.282Z,3.01
2022-08-03T20:30:11.857Z,3.01
2022-08-03T20:35:20.974Z,3.01
2022-08-03T20:40:29.018Z,3.01
2022-08-03T20:45:36.478Z,3.01
2022-08-03T20:50:44.483Z,3.01
2022-08-03T20:55:52.282Z,3.02
2022-08-03T21:01:00.082Z,3.02
2022-08-03T21:06:07.115Z,3.01
2022-08-03T21:11:15.675Z,3.01
2022-08-03T21:16:22.633Z,3.01
2022-08-03T21:21:30.042Z,3.01
2022-08-03T21:26:37.598Z,3.02
2022-08-03T21:31:44.647Z,3.02
2022-08-03T21:36:52.086Z,3.01
2022-08-03T21:42:00.411Z,3.01
2022-08-03T21:47:10.506Z,3.01
2022-08-03T21:52:18.730Z,3.02
2022-08-03T21:57:27.147Z,3.0
2022-08-03T22:02:35.462Z,3.01
2022-08-03T22:07:41.657Z,3.01
2022-08-03T22:12:49.463Z,3.0
2022-08-03T22:17:56.697Z,3.01
2022-08-03T22:23:04.412Z,3.01
2022-08-03T22:28:12.487Z,3.01
2022-08-03T22:33:20.425Z,3.01
2022-08-03T22:39:05.816Z,3.0
2022-08-03T22:44:13.492Z,3.01
2022-08-03T22:49:22.437Z,3.01
2022-08-03T22:54:31.282Z,3.01
2022-08-03T22:59:39.099Z,3.01
2022-08-03T23:04:46.436Z,3.01
2022-08-03T23:09:53.957Z,3.01
2022-08-03T23:15:00.978Z,3.0
2022-08-03T23:20:08.744Z,3.01
2022-08-03T23:25:15.102Z,3.0
2022-08-03T23:30:22.936Z,3.0
2022-08-03T23:35:31.843Z,3.01
2022-08-03T23:40:38.615Z,3.01
2022-08-03T23:45:46.259Z,3.01
2022-08-03T23:50:54.240Z,3.0
2022-08-03T23:56:02.005Z,3.01
